createdAt,value
2022-08-25T00:00:14.232Z,21.63
2022-08-25T00:02:45.543Z,21.64
2022-08-25T00:05:26.303Z,21.65
2022-08-25T00:07:55.066Z,21.64
2022-08-25T00:10:22.136Z,21.66
2022-08-25T00:12:49.337Z,21.65
2022-08-25T00:15:16.580Z,21.52
2022-08-25T00:17:43.716Z,21.50
2022-08-25T00:20:11.110Z,21.50
2022-08-25T00:22:38.259Z,21.43
2022-08-25T00:25:05.808Z,21.44
2022-08-25T00:27:32.825Z,21.42
2022-08-25T00:30:00.546Z,21.39
2022-08-25T00:32:28.187Z,21.39
2022-08-25T00:34:55.377Z,21.30
2022-08-25T00:37:22.467Z,21.39
2022-08-25T00:39:49.735Z,21.38
2022-08-25T00:42:17.114Z,21.41
2022-08-25T00:44:44.338Z,21.43
2022-08-25T00:47:11.485Z,21.41
2022-08-25T00:49:46.186Z,21.37
2022-08-25T00:52:38.138Z,21.40
2022-08-25T00:55:11.766Z,21.43
2022-08-25T00:58:14.327Z,21.43
2022-08-25T01:00:45.115Z,21.42
2022-08-25T01:03:12.526Z,21.39
2022-08-25T01:05:41.789Z,21.40
2022-08-25T01:08:10.170Z,21.35
2022-08-25T01:10:41.506Z,21.29
2022-08-25T01:13:18.835Z,21.28
2022-08-25T01:15:48.419Z,21.27
2022-08-25T01:18:16.267Z,21.24
2022-08-25T01:20:43.726Z,21.21
2022-08-25T01:23:11.027Z,21.16
2022-08-25T01:26:00.445Z,21.16
2022-08-25T01:28:27.790Z,21.12
2022-08-25T01:30:55.152Z,21.03
2022-08-25T01:33:23.346Z,21.09
2022-08-25T01:35:50.592Z,21.08
2022-08-25T01:38:18.715Z,21.06
2022-08-25T01:40:45.873Z,21.02
2022-08-25T01:43:15.747Z,21.10
2022-08-25T01:45:47.770Z,21.11
2022-08-25T01:48:16.867Z,21.11
2022-08-25T01:50:44.432Z,21.09
2022-08-25T01:53:28.714Z,21.06
2022-08-25T01:56:02.752Z,21.06
2022-08-25T01:58:33.939Z,21.07
2022-08-25T02:01:04.140Z,21.05
2022-08-25T02:03:32.521Z,21.01
2022-08-25T02:06:00.180Z,20.99
2022-08-25T02:08:27.468Z,20.96
2022-08-25T02:10:55.941Z,20.93
2022-08-25T02:13:26.938Z,20.94
2022-08-25T02:16:02.061Z,20.91
2022-08-25T02:18:29.588Z,20.94
2022-08-25T02:20:56.832Z,20.98
2022-08-25T02:23:24.015Z,21.01
2022-08-25T02:25:51.258Z,21.04
2022-08-25T02:28:18.536Z,21.03
2022-08-25T02:30:46.270Z,21.05
2022-08-25T02:33:13.387Z,21.06
2022-08-25T02:35:40.568Z,21.03
2022-08-25T02:38:07.968Z,21.06
2022-08-25T02:40:35.255Z,21.08
2022-08-25T02:43:02.490Z,21.00
2022-08-25T02:45:29.976Z,21.04
2022-08-25T02:47:57.291Z,21.03
2022-08-25T02:50:25.172Z,21.05
2022-08-25T02:52:52.856Z,21.08
2022-08-25T02:55:20.365Z,21.03
2022-08-25T02:57:48.485Z,21.03
2022-08-25T03:00:17.456Z,21.01
2022-08-25T03:02:46.851Z,20.97
2022-08-25T03:05:15.643Z,20.98
2022-08-25T03:07:43.191Z,20.98
2022-08-25T03:10:15.639Z,20.97
2022-08-25T03:12:42.807Z,20.93
2022-08-25T03:15:12.941Z,20.92
2022-08-25T03:17:40.916Z,20.93
2022-08-25T03:20:13.337Z,20.95
2022-08-25T03:22:40.681Z,20.96
2022-08-25T03:25:26.659Z,20.91
2022-08-25T03:27:54.026Z,20.88
2022-08-25T03:30:21.529Z,20.83
2022-08-25T03:32:48.825Z,20.82
2022-08-25T03:35:16.004Z,20.76
2022-08-25T03:37:43.129Z,20.78
2022-08-25T03:40:15.220Z,20.75
2022-08-25T03:42:46.972Z,20.74
2022-08-25T03:45:16.691Z,20.74
2022-08-25T03:47:47.085Z,20.74
2022-08-25T03:50:16.476Z,20.73
2022-08-25T03:52:43.726Z,20.72
2022-08-25T03:55:13.822Z,20.73
2022-08-25T03:57:41.145Z,20.76
2022-08-25T04:00:10.542Z,20.75
2022-08-25T04:02:41.441Z,20.75
2022-08-25T04:05:09.378Z,20.79
2022-08-25T04:07:36.608Z,20.79
2022-08-25T04:10:05.987Z,20.75
2022-08-25T04:12:33.437Z,20.74
2022-08-25T04:15:01.391Z,20.72
2022-08-25T04:17:28.697Z,20.73
2022-08-25T04:19:55.985Z,20.73
2022-08-25T04:22:23.299Z,20.69
2022-08-25T04:24:50.492Z,20.72
2022-08-25T04:27:17.627Z,20.75
2022-08-25T04:29:44.865Z,20.74
2022-08-25T04:32:12.135Z,20.71
2022-08-25T04:34:39.325Z,20.75
2022-08-25T04:37:07.951Z,20.78
2022-08-25T04:39:35.329Z,20.73
2022-08-25T04:42:02.816Z,20.83
2022-08-25T04:44:31.098Z,20.88
2022-08-25T04:46:58.574Z,20.89
2022-08-25T04:49:25.818Z,20.92
2022-08-25T04:51:52.933Z,20.95
2022-08-25T04:54:23.379Z,21.00
2022-08-25T04:56:54.651Z,21.02
2022-08-25T04:59:29.526Z,21.03
2022-08-25T05:02:02.798Z,21.06
2022-08-25T05:04:31.398Z,21.08
2022-08-25T05:06:58.856Z,21.07
2022-08-25T05:09:26.749Z,20.85
2022-08-25T05:11:54.953Z,20.95
2022-08-25T05:14:26.480Z,21.00
2022-08-25T05:16:54.830Z,20.99
2022-08-25T05:19:24.434Z,21.00
2022-08-25T05:21:52.185Z,20.98
2022-08-25T05:24:19.601Z,21.00
2022-08-25T05:26:46.982Z,21.02
2022-08-25T05:29:14.615Z,21.07
2022-08-25T05:31:48.307Z,21.03
2022-08-25T05:34:19.113Z,21.11
2022-08-25T05:36:47.216Z,21.13
2022-08-25T05:39:14.890Z,21.20
2022-08-25T05:41:42.047Z,21.22
2022-08-25T05:44:09.290Z,21.21
2022-08-25T05:46:36.530Z,21.21
2022-08-25T05:49:03.851Z,21.22
2022-08-25T05:51:30.975Z,21.20
2022-08-25T05:53:58.139Z,21.20
2022-08-25T05:56:25.268Z,21.23
2022-08-25T05:58:52.546Z,21.20
2022-08-25T06:01:47.097Z,21.20
2022-08-25T06:04:17.950Z,21.18
2022-08-25T06:06:45.264Z,21.25
2022-08-25T06:09:12.547Z,21.32
2022-08-25T06:11:41.111Z,21.33
2022-08-25T06:14:10.132Z,21.30
2022-08-25T06:16:39.380Z,21.36
2022-08-25T06:19:09.211Z,21.39
2022-08-25T06:21:39.314Z,21.33
2022-08-25T06:24:09.974Z,21.38
2022-08-25T06:26:39.241Z,21.40
2022-08-25T06:29:06.332Z,21.50
2022-08-25T06:31:33.575Z,21.54
2022-08-25T06:34:00.846Z,21.50
2022-08-25T06:36:28.498Z,21.55
2022-08-25T06:38:55.553Z,21.56
2022-08-25T06:41:22.786Z,21.55
2022-08-25T06:43:54.158Z,21.57
2022-08-25T06:46:35.652Z,21.57
2022-08-25T06:49:03.938Z,21.63
2022-08-25T06:51:31.156Z,21.66
2022-08-25T06:53:58.202Z,21.65
2022-08-25T06:56:26.596Z,21.60
2022-08-25T06:58:53.840Z,21.64
2022-08-25T07:01:26.468Z,21.66
2022-08-25T07:03:59.982Z,21.66
2022-08-25T07:06:29.191Z,21.68
2022-08-25T07:08:56.306Z,21.70
2022-08-25T07:11:24.399Z,21.71
2022-08-25T07:13:52.096Z,21.76
2022-08-25T07:16:20.858Z,21.76
2022-08-25T07:18:49.022Z,21.80
2022-08-25T07:21:16.870Z,21.81
2022-08-25T07:23:44.751Z,21.87
2022-08-25T07:29:32.748Z,21.97
2022-08-25T07:32:02.035Z,22.00
2022-08-25T07:34:52.619Z,22.04
2022-08-25T07:37:48.964Z,22.09
2022-08-25T07:40:22.725Z,22.14
2022-08-25T07:42:54.199Z,22.16
2022-08-25T07:45:25.688Z,22.20
2022-08-25T07:47:54.059Z,22.21
2022-08-25T07:50:23.320Z,22.23
2022-08-25T07:52:55.078Z,22.26
2022-08-25T07:55:27.405Z,22.32
2022-08-25T07:57:57.080Z,22.36
2022-08-25T08:00:28.071Z,22.43
2022-08-25T08:02:56.175Z,22.48
2022-08-25T08:05:24.929Z,22.54
2022-08-25T08:07:53.942Z,22.54
2022-08-25T08:10:54.018Z,22.61
2022-08-25T08:13:10.461Z,22.64
2022-08-25T08:15:38.152Z,22.64
2022-08-25T08:18:07.181Z,22.75
2022-08-25T08:20:42.845Z,22.90
2022-08-25T08:23:11.513Z,22.89
2022-08-25T08:25:38.702Z,23.08
2022-08-25T08:28:07.449Z,23.23
2022-08-25T08:30:36.811Z,23.33
2022-08-25T08:33:10.223Z,23.40
2022-08-25T08:35:40.561Z,23.53
2022-08-25T08:38:14.911Z,23.61
2022-08-25T08:41:22.949Z,23.73
2022-08-25T08:44:01.741Z,24.24
2022-08-25T08:46:43.683Z,24.75
2022-08-25T08:49:26.836Z,25.04
2022-08-25T08:52:01.326Z,25.05
2022-08-25T08:54:36.367Z,25.02
2022-08-25T08:57:18.331Z,24.95
2022-08-25T09:00:03.189Z,24.86
2022-08-25T09:02:51.429Z,24.81
2022-08-25T09:05:23.007Z,24.78
2022-08-25T09:07:56.289Z,24.70
2022-08-25T09:10:26.911Z,24.60
2022-08-25T09:13:18.816Z,24.54
2022-08-25T09:16:25.234Z,24.51
2022-08-25T09:19:23.341Z,24.39
2022-08-25T09:21:53.777Z,24.36
2022-08-25T09:24:40.547Z,24.26
2022-08-25T09:27:22.595Z,24.27
2022-08-25T09:30:07.495Z,24.25
2022-08-25T09:33:05.101Z,24.22
2022-08-25T09:35:36.102Z,24.22
2022-08-25T09:38:07.854Z,24.21
2022-08-25T09:40:42.566Z,24.20
2022-08-25T09:43:34.369Z,24.22
2022-08-25T09:46:03.439Z,24.26
2022-08-25T09:48:40.983Z,24.28
2022-08-25T09:51:19.817Z,24.29
2022-08-25T09:54:10.728Z,24.30
2022-08-25T09:56:50.504Z,24.29
2022-08-25T09:59:34.267Z,24.41
2022-08-25T10:02:29.215Z,24.52
2022-08-25T10:04:56.774Z,24.60
2022-08-25T10:07:39.891Z,24.72
2022-08-25T10:10:18.621Z,24.89
2022-08-25T10:12:51.232Z,25.03
2022-08-25T10:15:30.317Z,25.31
2022-08-25T10:18:25.952Z,25.92
2022-08-25T10:21:17.637Z,26.21
2022-08-25T10:23:50.172Z,26.35
2022-08-25T10:26:34.826Z,26.57
2022-08-25T10:29:23.967Z,26.73
2022-08-25T10:31:59.656Z,26.82
2022-08-25T10:34:34.898Z,26.97
2022-08-25T10:37:11.092Z,27.00
2022-08-25T10:39:46.255Z,27.28
2022-08-25T10:42:32.223Z,27.55
2022-08-25T10:45:40.696Z,27.80
2022-08-25T10:48:32.278Z,27.96
2022-08-25T10:51:14.612Z,28.09
2022-08-25T10:53:56.930Z,28.20
2022-08-25T10:56:29.648Z,28.32
2022-08-25T10:59:22.573Z,28.37
2022-08-25T11:02:08.568Z,28.51
2022-08-25T11:04:42.952Z,28.51
2022-08-25T11:07:38.378Z,28.52
2022-08-25T11:10:10.020Z,28.52
2022-08-25T11:13:00.074Z,28.59
2022-08-25T11:16:00.211Z,28.62
2022-08-25T11:18:33.198Z,28.56
2022-08-25T11:21:20.581Z,28.59
2022-08-25T11:24:18.658Z,28.72
2022-08-25T11:26:54.857Z,28.80
2022-08-25T11:29:24.818Z,28.84
2022-08-25T11:31:54.087Z,28.89
2022-08-25T11:34:22.716Z,28.96
2022-08-25T11:37:11.142Z,29.03
2022-08-25T11:40:03.991Z,29.06
2022-08-25T11:42:59.872Z,29.07
2022-08-25T11:45:54.398Z,29.16
2022-08-25T11:48:24.626Z,29.19
2022-08-25T11:51:06.948Z,29.14
2022-08-25T11:53:43.549Z,29.23
2022-08-25T11:56:32.673Z,29.21
2022-08-25T11:59:02.059Z,29.22
2022-08-25T12:01:43.335Z,29.24
2022-08-25T12:04:35.654Z,29.25
2022-08-25T12:07:17.906Z,29.27
2022-08-25T12:09:51.423Z,29.28
2022-08-25T12:12:56.905Z,29.33
2022-08-25T12:15:26.646Z,29.32
2022-08-25T12:18:15.285Z,29.31
2022-08-25T12:20:57.338Z,29.27
2022-08-25T12:24:02.600Z,29.15
2022-08-25T12:26:48.198Z,28.70
2022-08-25T12:29:27.615Z,28.46
2022-08-25T12:32:04.714Z,28.50
2022-08-25T12:34:47.233Z,28.65
2022-08-25T12:37:18.067Z,28.66
2022-08-25T12:39:51.390Z,28.49
2022-08-25T12:42:43.546Z,28.48
2022-08-25T12:45:39.210Z,28.51
2022-08-25T12:48:28.088Z,28.60
2022-08-25T12:51:01.250Z,28.63
2022-08-25T12:53:44.250Z,28.62
2022-08-25T12:56:39.160Z,28.64
2022-08-25T12:59:48.711Z,28.70
2022-08-25T13:02:34.303Z,28.77
2022-08-25T13:05:16.455Z,28.73
2022-08-25T13:08:15.301Z,28.76
2022-08-25T13:10:51.139Z,28.80
2022-08-25T13:13:57.871Z,28.79
2022-08-25T13:16:29.727Z,28.61
2022-08-25T13:19:01.784Z,28.38
2022-08-25T13:21:30.965Z,28.15
2022-08-25T13:24:05.034Z,28.14
2022-08-25T13:26:37.707Z,28.23
2022-08-25T13:29:24.648Z,28.34
2022-08-25T13:32:09.457Z,28.41
2022-08-25T13:34:42.552Z,28.46
2022-08-25T13:37:29.716Z,28.42
2022-08-25T13:40:24.767Z,28.44
2022-08-25T13:43:01.063Z,28.45
2022-08-25T13:45:32.294Z,28.52
2022-08-25T13:47:59.777Z,28.52
2022-08-25T13:50:27.180Z,28.52
2022-08-25T13:53:02.091Z,28.52
2022-08-25T13:55:38.128Z,28.53
2022-08-25T13:58:39.487Z,28.53
2022-08-25T14:01:48.205Z,28.41
2022-08-25T14:04:21.067Z,28.38
2022-08-25T14:06:48.876Z,28.33
2022-08-25T14:09:28.142Z,28.20
2022-08-25T14:11:58.778Z,28.17
2022-08-25T14:14:25.910Z,28.17
2022-08-25T14:17:08.212Z,28.17
2022-08-25T14:19:49.239Z,28.20
2022-08-25T14:22:16.441Z,28.19
2022-08-25T14:24:44.109Z,28.19
2022-08-25T14:27:11.995Z,28.13
2022-08-25T14:29:41.179Z,28.12
2022-08-25T14:32:10.066Z,28.13
2022-08-25T14:34:39.654Z,28.10
2022-08-25T14:37:18.159Z,28.08
2022-08-25T14:39:46.050Z,28.11
2022-08-25T14:42:13.948Z,28.09
2022-08-25T14:44:41.364Z,28.09
2022-08-25T14:47:09.471Z,28.08
2022-08-25T14:49:40.949Z,28.08
2022-08-25T14:52:22.726Z,28.14
2022-08-25T14:54:50.867Z,27.99
2022-08-25T14:57:18.572Z,28.08
2022-08-25T14:59:46.443Z,28.01
2022-08-25T15:02:19.893Z,27.93
2022-08-25T15:05:00.673Z,27.87
2022-08-25T15:07:50.578Z,27.85
2022-08-25T15:10:17.916Z,27.79
2022-08-25T15:12:47.890Z,27.77
2022-08-25T15:15:15.459Z,27.77
2022-08-25T15:17:45.559Z,27.73
2022-08-25T15:20:13.038Z,27.69
2022-08-25T15:22:42.565Z,27.67
2022-08-25T15:25:11.412Z,27.67
2022-08-25T15:27:38.588Z,27.65
2022-08-25T15:30:07.032Z,27.66
2022-08-25T15:32:34.346Z,27.63
2022-08-25T15:35:01.506Z,27.46
2022-08-25T15:37:29.171Z,27.57
2022-08-25T15:39:56.891Z,27.52
2022-08-25T15:42:25.698Z,27.52
2022-08-25T15:44:54.116Z,27.48
2022-08-25T15:47:22.577Z,27.45
2022-08-25T15:49:49.904Z,27.47
2022-08-25T15:52:17.437Z,27.43
2022-08-25T15:54:45.208Z,27.34
2022-08-25T15:57:16.279Z,27.36
2022-08-25T15:59:53.241Z,27.33
2022-08-25T16:02:21.809Z,27.26
2022-08-25T16:04:51.019Z,27.23
2022-08-25T16:07:18.421Z,27.21
2022-08-25T16:09:47.035Z,27.18
2022-08-25T16:12:14.544Z,27.14
2022-08-25T16:14:41.772Z,27.15
2022-08-25T16:17:09.065Z,27.07
2022-08-25T16:19:38.115Z,27.05
2022-08-25T16:22:08.847Z,27.03
2022-08-25T16:24:44.528Z,26.96
2022-08-25T16:27:13.699Z,26.94
2022-08-25T16:29:42.985Z,26.93
2022-08-25T16:32:13.389Z,26.90
2022-08-25T16:34:41.830Z,26.79
2022-08-25T16:37:09.238Z,26.84
2022-08-25T16:39:37.221Z,26.82
2022-08-25T16:42:07.286Z,26.78
2022-08-25T16:44:34.692Z,26.73
2022-08-25T16:47:02.994Z,26.65
2022-08-25T16:49:31.300Z,26.68
2022-08-25T16:51:58.565Z,26.64
2022-08-25T16:54:45.652Z,26.62
2022-08-25T16:57:13.328Z,26.58
2022-08-25T16:59:43.904Z,26.54
2022-08-25T17:02:11.360Z,26.36
2022-08-25T17:04:39.036Z,26.48
2022-08-25T17:07:07.894Z,26.39
2022-08-25T17:09:35.260Z,26.41
2022-08-25T17:12:02.665Z,26.37
2022-08-25T17:14:29.809Z,26.29
2022-08-25T17:16:58.050Z,26.31
2022-08-25T17:19:26.065Z,26.24
2022-08-25T17:21:54.919Z,26.22
2022-08-25T17:24:22.551Z,26.19
2022-08-25T17:26:57.086Z,26.13
2022-08-25T17:29:24.816Z,26.08
2022-08-25T17:31:52.350Z,26.06
2022-08-25T17:34:23.080Z,25.99
2022-08-25T17:36:50.973Z,25.97
2022-08-25T17:39:19.903Z,25.93
2022-08-25T17:41:50.942Z,25.86
2022-08-25T17:44:19.514Z,25.82
2022-08-25T17:46:48.068Z,25.79
2022-08-25T17:49:17.313Z,25.71
2022-08-25T17:51:45.507Z,25.67
2022-08-25T17:54:13.066Z,25.63
2022-08-25T17:56:40.976Z,25.53
2022-08-25T17:59:08.708Z,25.57
2022-08-25T18:01:40.184Z,25.47
2022-08-25T18:04:17.351Z,25.48
2022-08-25T18:06:47.763Z,25.41
2022-08-25T18:09:16.315Z,25.36
2022-08-25T18:11:45.640Z,25.34
2022-08-25T18:14:16.864Z,25.30
2022-08-25T18:16:44.336Z,25.26
2022-08-25T18:19:14.394Z,25.24
2022-08-25T18:21:41.805Z,25.17
2022-08-25T18:24:11.987Z,25.07
2022-08-25T18:26:40.800Z,25.13
2022-08-25T18:29:12.518Z,25.08
2022-08-25T18:31:42.121Z,25.06
2022-08-25T18:34:11.432Z,25.03
2022-08-25T18:36:39.528Z,25.00
2022-08-25T18:39:26.463Z,24.98
2022-08-25T18:41:53.898Z,24.84
2022-08-25T18:44:21.307Z,24.91
2022-08-25T18:46:48.816Z,24.90
2022-08-25T18:49:17.591Z,24.84
2022-08-25T18:51:46.537Z,24.84
2022-08-25T18:54:22.753Z,24.80
2022-08-25T18:56:54.834Z,24.74
2022-08-25T18:59:23.796Z,24.66
2022-08-25T19:01:54.293Z,24.71
2022-08-25T19:04:28.406Z,24.66
2022-08-25T19:07:00.203Z,24.61
2022-08-25T19:09:27.390Z,24.61
2022-08-25T19:11:55.919Z,24.57
2022-08-25T19:14:23.540Z,24.52
2022-08-25T19:16:54.585Z,24.53
2022-08-25T19:19:23.195Z,24.50
2022-08-25T19:21:50.851Z,24.44
2022-08-25T19:24:18.655Z,24.48
2022-08-25T19:26:46.558Z,24.44
2022-08-25T19:29:17.511Z,24.44
2022-08-25T19:31:47.835Z,24.39
2022-08-25T19:34:19.576Z,24.39
2022-08-25T19:36:48.067Z,24.33
2022-08-25T19:39:16.435Z,24.32
2022-08-25T19:41:44.755Z,24.33
2022-08-25T19:44:12.852Z,24.28
2022-08-25T19:46:42.910Z,24.27
2022-08-25T19:49:12.421Z,24.22
2022-08-25T19:51:43.878Z,24.20
2022-08-25T19:54:15.739Z,24.19
2022-08-25T19:56:54.442Z,24.16
2022-08-25T19:59:34.221Z,24.14
2022-08-25T20:02:09.955Z,24.09
2022-08-25T20:04:38.050Z,24.07
2022-08-25T20:07:07.098Z,24.05
2022-08-25T20:09:40.770Z,24.03
2022-08-25T20:12:11.423Z,24.02
2022-08-25T20:14:39.609Z,23.97
2022-08-25T20:17:14.445Z,23.91
2022-08-25T20:19:51.096Z,23.93
2022-08-25T20:22:19.949Z,23.88
2022-08-25T20:24:49.636Z,23.88
2022-08-25T20:27:35.855Z,23.86
2022-08-25T20:30:08.438Z,23.77
2022-08-25T20:32:36.981Z,23.78
2022-08-25T20:35:08.873Z,23.77
2022-08-25T20:37:36.818Z,23.76
2022-08-25T20:40:05.826Z,23.73
2022-08-25T20:42:33.140Z,23.66
2022-08-25T20:45:00.979Z,23.65
2022-08-25T20:47:28.417Z,23.66
2022-08-25T20:49:55.689Z,23.59
2022-08-25T20:52:23.138Z,23.53
2022-08-25T20:54:51.832Z,23.55
2022-08-25T20:57:24.499Z,23.54
2022-08-25T20:59:53.585Z,23.47
2022-08-25T21:02:21.567Z,23.41
2022-08-25T21:04:49.123Z,23.35
2022-08-25T21:07:18.847Z,23.30
2022-08-25T21:09:46.517Z,23.28
2022-08-25T21:12:15.028Z,23.23
2022-08-25T21:14:42.678Z,23.23
2022-08-25T21:17:14.587Z,23.20
2022-08-25T21:19:42.573Z,23.17
2022-08-25T21:22:11.066Z,23.10
2022-08-25T21:24:38.709Z,23.09
2022-08-25T21:27:06.498Z,23.06
2022-08-25T21:29:33.997Z,23.00
2022-08-25T21:32:02.139Z,23.04
2022-08-25T21:34:29.696Z,23.04
2022-08-25T21:37:00.101Z,23.05
2022-08-25T21:39:29.766Z,23.05
2022-08-25T21:42:00.420Z,23.08
2022-08-25T21:44:28.834Z,23.05
2022-08-25T21:46:56.770Z,23.04
2022-08-25T21:49:25.263Z,23.01
2022-08-25T21:52:00.983Z,22.97
2022-08-25T21:54:29.857Z,22.93
2022-08-25T21:57:00.487Z,22.93
2022-08-25T21:59:30.626Z,22.90
2022-08-25T22:02:01.122Z,22.87
2022-08-25T22:04:29.719Z,22.80
2022-08-25T22:06:58.395Z,22.76
2022-08-25T22:09:28.183Z,22.74
2022-08-25T22:11:55.898Z,22.74
2022-08-25T22:14:24.505Z,22.75
2022-08-25T22:16:54.605Z,22.66
2022-08-25T22:19:22.828Z,22.72
2022-08-25T22:21:51.699Z,22.70
2022-08-25T22:24:19.652Z,22.70
2022-08-25T22:26:48.599Z,22.66
2022-08-25T22:29:24.774Z,22.69
2022-08-25T22:31:59.975Z,22.73
2022-08-25T22:34:32.862Z,22.70
2022-08-25T22:37:04.576Z,22.67
2022-08-25T22:39:34.358Z,22.72
2022-08-25T22:42:03.025Z,22.71
2022-08-25T22:44:30.427Z,22.71
2022-08-25T22:46:57.584Z,22.69
2022-08-25T22:49:28.983Z,22.67
2022-08-25T22:51:56.327Z,22.50
2022-08-25T22:54:25.523Z,22.63
2022-08-25T22:56:53.682Z,22.60
2022-08-25T22:59:22.059Z,22.58
2022-08-25T23:01:52.694Z,22.55
2022-08-25T23:04:22.256Z,22.54
2022-08-25T23:06:50.090Z,22.54
2022-08-25T23:09:17.263Z,22.51
2022-08-25T23:11:44.618Z,22.52
2022-08-25T23:14:13.071Z,22.53
2022-08-25T23:16:42.136Z,22.54
2022-08-25T23:19:13.735Z,22.51
2022-08-25T23:22:01.317Z,22.51
2022-08-25T23:24:30.298Z,22.47
2022-08-25T23:26:59.808Z,22.47
2022-08-25T23:29:28.965Z,22.44
2022-08-25T23:31:56.798Z,22.46
2022-08-25T23:34:25.536Z,22.45
2022-08-25T23:36:53.185Z,22.46
2022-08-25T23:39:21.775Z,22.45
2022-08-25T23:41:50.574Z,22.41
2022-08-25T23:44:19.217Z,22.40
2022-08-25T23:46:47.907Z,22.40
2022-08-25T23:49:18.377Z,22.37
2022-08-25T23:51:51.841Z,22.36
2022-08-25T23:54:20.935Z,22.35
2022-08-25T23:56:52.205Z,22.34
2022-08-25T23:59:24.367Z,22.31
